Decoded Metar for GMTT (TANGER in MOROCCO) (IATA:TNG) | Meteo·Mobile Aviation Weather
aviador You're here:

GMTT Decoded Metar

TANGER in MOROCCO
Report Time2019-07-16 11:00:00
UTC Time2019-07-16 11:11:31
Flight Rules vfr VFR
Wind260° at 13 kt
W.Decomp.*RWY 28: 12.4 kt HW 4 kt LCW
Visibility9999 m
Phenomena:N/A
Clouds:Few 016 Hf
Expected CloudBase > 3,200 ft AGL from Temp-Dew spread
CeilingNone
Temp24°C (ISA +9)
Dew Point16°C (61% RH)
AAT21.3°C
QNH1015 hPa
Density Alt1,306 ft
Elevation69 ft
Report Wrong Elevation
Raw Report
METAR GMTT 161100Z 26013KT 9999 FEW016 24/16 Q1015 NOSIG=

Extra information for GMTT:More info

Metar Taf Metar & Taf Last 4 Metars F.Rules Stats Wind Profile Meteogram Temp Stats Airport Information Weather charts Add Link Nearby VenuesMetar ALERT Operation Metar Decoded Social comments